createdAt,value
2019-05-03T00:00:57.455Z,94878.64
2019-05-03T00:05:56.200Z,94874.27
2019-05-03T00:10:53.159Z,94869.06
2019-05-03T00:15:52.292Z,94868.70
2019-05-03T00:20:49.304Z,94865.66
2019-05-03T00:25:46.631Z,94867.35
2019-05-03T00:30:43.559Z,94864.30
2019-05-03T00:35:57.473Z,94862.70
2019-05-03T00:40:55.055Z,94863.30
2019-05-03T00:45:52.112Z,94866.31
2019-05-03T00:50:49.072Z,94863.37
2019-05-03T00:55:46.148Z,94871.70
2019-05-03T01:00:43.142Z,94867.67
2019-05-03T01:05:42.231Z,94865.92
2019-05-03T01:10:39.175Z,94858.81
2019-05-03T01:15:51.993Z,94857.72
2019-05-03T01:20:49.093Z,94855.73
2019-05-03T01:25:46.091Z,94850.20
2019-05-03T01:30:43.017Z,94850.06
2019-05-03T01:35:40.025Z,94857.59
2019-05-03T01:40:37.000Z,94838.28
2019-05-03T01:45:35.012Z,94850.67
2019-05-03T01:50:42.495Z,94841.93
2019-05-03T01:55:52.295Z,94840.76
2019-05-03T02:00:55.086Z,94847.09
2019-05-03T02:05:53.652Z,94841.31
2019-05-03T02:10:51.776Z,94839.63
2019-05-03T02:15:48.964Z,94836.64
2019-05-03T02:20:45.938Z,94830.31
2019-05-03T02:25:55.393Z,94829.95
2019-05-03T02:30:44.076Z,94821.16
2019-05-03T02:35:43.042Z,94816.81
2019-05-03T02:40:39.527Z,94813.55
2019-05-03T02:45:38.414Z,94820.05
2019-05-03T02:50:36.025Z,94819.16
2019-05-03T02:55:35.932Z,94824.88
2019-05-03T03:00:56.122Z,94816.03
2019-05-03T03:05:56.570Z,94822.36
2019-05-03T03:11:01.311Z,94817.96
2019-05-03T03:16:06.768Z,94812.78
2019-05-03T03:21:08.892Z,94820.98
2019-05-03T03:26:07.341Z,94825.80
2019-05-03T03:31:18.770Z,94821.36
2019-05-03T03:36:38.046Z,94836.09
2019-05-03T03:41:16.302Z,94831.63
2019-05-03T03:46:15.966Z,94829.48
2019-05-03T03:51:15.504Z,94833.23
2019-05-03T03:56:16.046Z,94837.16
2019-05-03T04:01:15.703Z,94832.61
2019-05-03T04:06:15.441Z,94832.38
2019-05-03T04:11:15.533Z,94833.08
2019-05-03T04:16:26.190Z,94838.18
2019-05-03T04:21:25.586Z,94839.27
2019-05-03T04:26:27.521Z,94836.70
2019-05-03T04:31:21.583Z,94842.02
2019-05-03T04:36:18.651Z,94842.16
2019-05-03T04:41:16.002Z,94840.25
2019-05-03T04:46:17.456Z,94849.15
2019-05-03T04:51:16.644Z,94851.66
2019-05-03T04:56:16.711Z,94859.30
2019-05-03T05:01:12.181Z,94855.40
2019-05-03T05:06:09.150Z,94860.75
2019-05-03T05:11:10.183Z,94857.50
2019-05-03T05:16:05.925Z,94844.02
2019-05-03T05:21:04.603Z,94844.52
2019-05-03T05:26:05.394Z,94839.67
2019-05-03T05:31:02.399Z,94839.92
2019-05-03T05:35:59.429Z,94829.22
2019-05-03T05:40:56.677Z,94834.78
2019-05-03T05:45:55.357Z,94826.83
2019-05-03T05:50:52.896Z,94828.83
2019-05-03T05:56:08.466Z,94830.75
2019-05-03T06:01:11.194Z,94831.24
2019-05-03T06:06:09.958Z,94831.53
2019-05-03T06:11:06.783Z,94835.73
2019-05-03T06:16:08.359Z,94834.40
2019-05-03T06:21:18.930Z,94830.03
2019-05-03T06:26:34.781Z,94822.67
2019-05-03T06:31:50.682Z,94823.98
2019-05-03T06:36:51.420Z,94823.41
2019-05-03T06:41:48.285Z,94816.05
2019-05-03T06:46:47.124Z,94829.27
2019-05-03T06:51:45.794Z,94831.92
2019-05-03T06:56:45.266Z,94815.11
2019-05-03T07:01:48.217Z,94818.58
2019-05-03T07:07:05.117Z,94814.76
2019-05-03T07:12:04.385Z,94823.23
2019-05-03T07:17:01.163Z,94838.73
2019-05-03T07:21:58.090Z,94829.56
2019-05-03T07:26:59.025Z,94816.33
2019-05-03T07:31:55.015Z,94818.23
2019-05-03T07:36:52.060Z,94820.14
2019-05-03T07:41:49.036Z,94827.16
2019-05-03T07:46:45.964Z,94834.80
2019-05-03T07:51:44.863Z,94829.62
2019-05-03T07:56:44.569Z,94837.20
2019-05-03T08:01:45.608Z,94836.69
2019-05-03T08:06:44.581Z,94833.98
2019-05-03T08:11:44.313Z,94831.16
2019-05-03T08:16:41.073Z,94827.81
2019-05-03T08:21:39.019Z,94834.28
2019-05-03T08:26:36.474Z,94843.97
2019-05-03T08:31:47.604Z,94840.33
2019-05-03T08:36:59.332Z,94842.57
2019-05-03T08:42:00.820Z,94841.71
2019-05-03T08:46:58.373Z,94836.14
2019-05-03T08:51:55.351Z,94828.03
2019-05-03T08:56:52.312Z,94813.48
2019-05-03T09:01:49.585Z,94849.31
2019-05-03T09:06:46.785Z,94865.75
2019-05-03T09:11:45.403Z,94868.30
2019-05-03T09:16:44.836Z,94865.45
2019-05-03T09:21:43.032Z,94851.79
2019-05-03T09:26:40.480Z,94848.06
2019-05-03T09:31:38.197Z,94842.13
2019-05-03T09:36:35.356Z,94847.33
2019-05-03T09:41:34.618Z,94848.66
2019-05-03T09:46:32.086Z,94843.95
2019-05-03T09:51:31.248Z,94850.66
2019-05-03T09:56:55.250Z,94854.13
2019-05-03T10:01:46.779Z,94852.41
2019-05-03T10:06:47.642Z,94842.42
2019-05-03T10:11:45.937Z,94846.66
2019-05-03T10:16:48.027Z,94844.72
2019-05-03T10:21:46.932Z,94833.16
2019-05-03T10:26:45.523Z,94828.45
2019-05-03T10:31:44.966Z,94826.69
2019-05-03T10:36:42.566Z,94830.04
2019-05-03T10:41:40.149Z,94828.66
2019-05-03T10:46:38.032Z,94836.14
2019-05-03T10:51:45.242Z,94847.02
2019-05-03T10:56:52.894Z,94838.11
2019-05-03T11:02:07.186Z,94841.55
2019-05-03T11:07:05.520Z,94847.42
2019-05-03T11:12:05.316Z,94864.71
2019-05-03T11:17:02.549Z,94862.50
2019-05-03T11:22:00.082Z,94863.77
2019-05-03T11:27:00.220Z,94865.54
2019-05-03T11:32:00.177Z,94856.44
2019-05-03T11:37:15.770Z,94867.21
2019-05-03T11:42:12.713Z,94855.11
2019-05-03T11:47:09.795Z,94865.89
2019-05-03T11:52:06.881Z,94867.12
2019-05-03T11:57:06.185Z,94871.21
2019-05-03T12:02:05.665Z,94866.55
2019-05-03T12:07:02.754Z,94869.02
2019-05-03T12:11:59.802Z,94874.60
2019-05-03T12:17:17.070Z,94863.05
2019-05-03T12:21:58.008Z,94868.59
2019-05-03T12:26:55.887Z,94877.89
2019-05-03T12:31:54.816Z,94890.31
2019-05-03T12:36:51.972Z,94887.28
2019-05-03T12:41:49.003Z,94885.08
2019-05-03T12:46:46.031Z,94875.18
2019-05-03T12:51:45.163Z,94898.48
2019-05-03T12:56:42.140Z,94925.27
2019-05-03T13:01:57.504Z,94948.69
2019-05-03T13:07:02.339Z,94948.26
2019-05-03T13:11:59.482Z,94958.59
2019-05-03T13:16:56.595Z,94953.65
2019-05-03T13:21:55.424Z,94956.27
2019-05-03T13:31:58.324Z,94969.63
2019-05-03T13:36:47.495Z,94976.83
2019-05-03T13:41:45.510Z,94995.97
2019-05-03T13:46:44.690Z,94990.52
2019-05-03T13:51:41.951Z,94992.23
2019-05-03T13:56:39.454Z,94996.03
2019-05-03T14:01:36.783Z,95008.84
2019-05-03T14:06:36.531Z,95011.98
2019-05-03T14:11:32.985Z,95032.87
2019-05-03T14:16:31.154Z,95060.42
2019-05-03T14:21:30.038Z,95071.16
2019-05-03T14:26:28.937Z,95059.42
2019-05-03T14:31:26.079Z,95072.74
2019-05-03T14:36:25.051Z,95062.44
2019-05-03T14:41:22.166Z,95014.60
2019-05-03T14:46:30.117Z,95008.82
2019-05-03T14:51:21.664Z,95018.38
2019-05-03T14:56:20.540Z,95011.95
2019-05-03T15:01:19.385Z,95003.16
2019-05-03T15:06:16.357Z,95001.08
2019-05-03T15:11:14.914Z,95002.95
2019-05-03T15:16:14.312Z,95017.21
2019-05-03T15:21:11.208Z,95023.73
2019-05-03T15:26:08.312Z,95022.32
2019-05-03T15:31:08.939Z,95016.54
2019-05-03T15:36:06.025Z,95025.25
2019-05-03T15:41:05.196Z,95025.14
2019-05-03T15:46:05.196Z,95023.27
2019-05-03T15:51:04.523Z,95004.66
2019-05-03T15:56:01.521Z,94988.41
2019-05-03T16:00:58.577Z,94978.95
2019-05-03T16:05:56.078Z,94983.44
2019-05-03T16:10:54.914Z,94981.80
2019-05-03T16:15:52.501Z,94979.42
2019-05-03T16:20:49.926Z,94975.20
2019-05-03T16:25:47.427Z,94980.39
2019-05-03T16:30:46.493Z,94983.75
2019-05-03T16:35:44.523Z,94994.76
2019-05-03T16:40:42.006Z,95000.09
2019-05-03T16:45:39.187Z,95002.62
2019-05-03T16:50:37.558Z,95007.39
2019-05-03T16:55:35.187Z,95003.13
2019-05-03T17:00:35.179Z,95009.48
2019-05-03T17:05:51.558Z,95023.53
2019-05-03T17:10:57.045Z,95026.63
2019-05-03T17:15:54.288Z,95030.67
2019-05-03T17:20:51.477Z,95048.66
2019-05-03T17:25:48.563Z,95052.03
2019-05-03T17:30:47.138Z,95057.73
2019-05-03T17:35:45.031Z,95060.66
2019-05-03T17:41:04.242Z,95055.98
2019-05-03T17:46:04.384Z,95062.28
2019-05-03T17:51:01.776Z,95064.30
2019-05-03T17:56:04.669Z,95071.31
2019-05-03T18:01:20.471Z,95061.42
2019-05-03T18:06:25.534Z,95066.89
2019-05-03T18:11:25.264Z,95072.35
2019-05-03T18:16:24.341Z,95075.55
2019-05-03T18:21:21.401Z,95080.48
2019-05-03T18:26:18.779Z,95086.83
2019-05-03T18:31:15.927Z,95101.61
2019-05-03T18:36:14.673Z,95105.19
2019-05-03T18:41:12.754Z,95114.83
2019-05-03T18:46:15.275Z,95118.59
2019-05-03T18:51:12.552Z,95127.45
2019-05-03T18:56:09.618Z,95127.99
2019-05-03T19:01:06.604Z,95131.25
2019-05-03T19:06:08.421Z,95141.93
2019-05-03T19:11:11.622Z,95136.35
2019-05-03T19:16:14.941Z,95137.81
2019-05-03T19:21:14.877Z,95146.72
2019-05-03T19:26:11.090Z,95147.08
2019-05-03T19:31:08.143Z,95150.06
2019-05-03T19:36:05.189Z,95153.86
2019-05-03T19:41:02.192Z,95163.72
2019-05-03T19:45:59.280Z,95168.87
2019-05-03T19:50:56.261Z,95167.15
2019-05-03T19:55:55.207Z,95167.53
2019-05-03T20:01:10.583Z,95180.89
2019-05-03T20:06:11.997Z,95178.48
2019-05-03T20:11:15.483Z,95187.36
2019-05-03T20:16:12.570Z,95187.66
2019-05-03T20:21:09.932Z,95194.64
2019-05-03T20:26:07.866Z,95198.45
2019-05-03T20:31:05.063Z,95211.34
2019-05-03T20:36:02.161Z,95210.64
2019-05-03T20:41:00.166Z,95220.58
2019-05-03T20:45:59.552Z,95222.76
2019-05-03T20:50:56.682Z,95224.77
2019-05-03T20:55:54.582Z,95227.15
2019-05-03T21:00:51.732Z,95226.00
2019-05-03T21:05:48.770Z,95229.92
2019-05-03T21:10:45.819Z,95239.81
2019-05-03T21:15:46.085Z,95238.66
2019-05-03T21:20:51.088Z,95240.13
2019-05-03T21:26:09.080Z,95249.13
2019-05-03T21:30:59.330Z,95252.84
2019-05-03T21:35:56.402Z,95260.19
2019-05-03T21:40:54.679Z,95262.45
2019-05-03T21:45:57.112Z,95260.67
2019-05-03T21:50:54.116Z,95253.61
2019-05-03T21:55:51.211Z,95249.89
2019-05-03T22:00:56.168Z,95244.70
2019-05-03T22:05:57.409Z,95243.36
2019-05-03T22:10:52.052Z,95245.27
2019-05-03T22:15:53.694Z,95246.89
2019-05-03T22:20:58.239Z,95241.69
2019-05-03T22:25:56.954Z,95241.30
2019-05-03T22:30:54.635Z,95246.16
2019-05-03T22:36:07.927Z,95241.13
2019-05-03T22:40:52.479Z,95239.84
2019-05-03T22:45:49.442Z,95241.47
2019-05-03T22:50:46.590Z,95242.44
2019-05-03T22:55:45.142Z,95229.16
2019-05-03T23:00:42.345Z,95219.55
2019-05-03T23:05:39.404Z,95221.27
2019-05-03T23:10:36.819Z,95228.88
2019-05-03T23:15:34.805Z,95217.59
2019-05-03T23:20:36.772Z,95220.05
2019-05-03T23:25:35.429Z,95221.20
2019-05-03T23:30:32.656Z,95218.34
2019-05-03T23:35:29.681Z,95214.81
2019-05-03T23:40:26.671Z,95217.88
2019-05-03T23:45:25.400Z,95222.45
2019-05-03T23:50:24.717Z,95225.38
2019-05-03T23:55:30.045Z,95216.19
